Time;durP1;ratioP1;P1;durP2;ratioP2;P2;SDS_P1;SDS_P2;PMS_P1;PMS_P2;Temp;Humidity;BMP_temperature;BMP_pressure;BME280_temperature;BME280_humidity;BME280_pressure;Samples;Min_cycle;Max_cycle;Signal;HPM_P1;HPM_P2
2022/11/23 00:00:33;;;;;;;21.17;12.70;;;8.00;99.90;;;;;;5039882;28;20040;-61
2022/11/23 00:02:59;;;;;;;18.67;11.98;;;8.00;99.90;;;;;;5048976;28;20068;-61
2022/11/23 00:05:29;;;;;;;17.88;13.70;;;8.00;99.90;;;;;;5061502;28;20032;-60
2022/11/23 00:07:55;;;;;;;17.65;12.68;;;8.00;99.90;;;;;;5049348;28;20051;-60
2022/11/23 00:10:20;;;;;;;17.10;12.45;;;8.00;99.90;;;;;;5050247;28;20037;-62
2022/11/23 00:12:47;;;;;;;19.42;13.38;;;8.00;99.90;;;;;;5049343;28;20037;-61
2022/11/23 00:15:14;;;;;;;18.58;13.32;;;8.10;99.90;;;;;;5046541;28;20094;-60
2022/11/23 00:17:40;;;;;;;20.95;13.20;;;8.10;99.90;;;;;;5046553;28;20111;-60
2022/11/23 00:20:07;;;;;;;19.15;12.65;;;8.10;99.90;;;;;;5011456;28;20116;-62
2022/11/23 00:22:34;;;;;;;15.80;12.45;;;8.10;99.90;;;;;;5053689;28;20605;-59
2022/11/23 00:25:00;;;;;;;22.20;13.40;;;8.10;99.90;;;;;;5058803;28;20082;-63
2022/11/23 00:27:26;;;;;;;19.02;13.40;;;8.10;99.90;;;;;;5054289;28;20464;-61
2022/11/23 00:29:52;;;;;;;16.38;13.23;;;8.20;99.90;;;;;;5060432;28;20422;-61
2022/11/23 00:32:17;;;;;;;19.75;12.93;;;8.10;99.90;;;;;;5029145;28;20048;-62
2022/11/23 00:34:43;;;;;;;22.30;13.70;;;8.10;99.90;;;;;;5053577;28;20113;-58
2022/11/23 00:37:09;;;;;;;18.98;13.40;;;8.10;99.90;;;;;;5042759;28;20043;-62
2022/11/23 00:39:34;;;;;;;22.52;14.00;;;8.20;99.90;;;;;;5034138;28;20435;-60
2022/11/23 00:42:00;;;;;;;19.67;13.15;;;8.20;99.90;;;;;;5056801;28;20037;-60
2022/11/23 00:44:26;;;;;;;19.88;13.57;;;8.20;99.90;;;;;;5052514;28;20044;-61
2022/11/23 00:46:51;;;;;;;21.27;13.82;;;8.20;99.90;;;;;;5059439;28;20033;-60
2022/11/23 00:49:17;;;;;;;20.20;13.57;;;8.20;99.90;;;;;;5043893;28;20479;-60
2022/11/23 00:51:43;;;;;;;22.23;14.40;;;8.20;99.90;;;;;;5026581;28;20029;-63
2022/11/23 00:54:08;;;;;;;27.83;14.90;;;8.20;99.90;;;;;;5047607;28;20208;-58
2022/11/23 00:56:34;;;;;;;25.25;13.75;;;8.10;99.90;;;;;;5034294;28;20102;-61
2022/11/23 00:59:02;;;;;;;18.67;14.15;;;8.20;99.90;;;;;;5034566;28;20038;-58
2022/11/23 01:01:32;;;;;;;18.40;14.43;;;8.30;99.90;;;;;;5050091;28;20033;-63
2022/11/23 01:03:59;;;;;;;24.58;14.30;;;8.20;99.90;;;;;;5027105;28;20044;-63
2022/11/23 01:06:28;;;;;;;18.90;13.30;;;8.20;99.90;;;;;;5052536;28;20036;-61
2022/11/23 01:08:56;;;;;;;21.25;14.63;;;8.20;99.90;;;;;;5040182;28;20048;-62
2022/11/23 01:11:24;;;;;;;20.00;14.10;;;8.20;99.90;;;;;;5046930;28;22248;-62
2022/11/23 01:13:50;;;;;;;21.23;13.98;;;8.20;99.90;;;;;;5056493;28;20613;-61
2022/11/23 01:16:17;;;;;;;19.17;13.15;;;8.20;99.90;;;;;;5058883;28;20051;-60
2022/11/23 01:18:43;;;;;;;23.15;14.95;;;8.20;99.90;;;;;;5059132;28;20424;-63
2022/11/23 01:21:08;;;;;;;21.23;13.95;;;8.30;99.90;;;;;;5064602;28;20279;-60
2022/11/23 01:23:34;;;;;;;23.13;13.35;;;8.30;99.90;;;;;;5035053;28;20536;-61
2022/11/23 01:26:08;;;;;;;22.63;14.70;;;8.30;99.90;;;;;;5051185;28;20483;-58
2022/11/23 01:28:36;;;;;;;20.67;13.80;;;8.30;99.90;;;;;;5019465;28;20079;-60
2022/11/23 01:31:07;;;;;;;24.33;15.43;;;8.20;99.90;;;;;;5053830;28;20032;-61
2022/11/23 01:33:34;;;;;;;21.48;13.98;;;8.30;99.90;;;;;;5049266;28;20406;-62
2022/11/23 01:35:59;;;;;;;19.70;13.95;;;8.30;99.90;;;;;;5050022;28;20037;-61
2022/11/23 01:38:25;;;;;;;24.80;15.10;;;8.30;99.90;;;;;;5057110;28;20032;-61
2022/11/23 01:40:51;;;;;;;26.67;15.05;;;8.30;99.90;;;;;;5050036;28;20048;-62
2022/11/23 01:43:17;;;;;;;24.40;14.15;;;8.30;99.90;;;;;;5036686;28;20048;-61
2022/11/23 01:46:04;;;;;;;21.15;14.70;;;8.30;99.90;;;;;;5020088;28;20936;-62
2022/11/23 01:48:36;;;;;;;21.98;13.85;;;8.30;99.90;;;;;;5043186;28;20074;-61
2022/11/23 01:51:26;;;;;;;22.27;14.82;;;8.30;99.90;;;;;;5043897;28;20041;-60
2022/11/23 01:53:56;;;;;;;21.42;13.38;;;8.30;99.90;;;;;;5046745;28;20139;-61
2022/11/23 01:56:32;;;;;;;19.73;14.30;;;8.30;99.90;;;;;;5057318;28;20109;-60
2022/11/23 01:59:01;;;;;;;24.55;14.52;;;8.30;99.90;;;;;;5043655;28;20555;-61
2022/11/23 02:01:27;;;;;;;25.98;14.82;;;8.30;99.90;;;;;;5044398;28;20033;-62
2022/11/23 02:03:57;;;;;;;24.88;15.48;;;8.30;99.90;;;;;;5022448;28;20067;-58
2022/11/23 02:06:23;;;;;;;28.88;14.55;;;8.30;99.90;;;;;;5056403;28;20047;-56
2022/11/23 02:08:50;;;;;;;26.90;15.55;;;8.30;99.90;;;;;;5019179;28;20041;-61
2022/11/23 02:11:16;;;;;;;26.35;15.70;;;8.30;99.90;;;;;;5056552;28;20054;-63
2022/11/23 02:13:44;;;;;;;30.30;14.95;;;8.30;99.90;;;;;;5040424;28;20556;-62
2022/11/23 02:16:11;;;;;;;20.58;14.75;;;8.30;99.90;;;;;;5049308;28;20491;-60
2022/11/23 02:18:41;;;;;;;27.15;15.02;;;8.30;99.90;;;;;;5035663;28;20110;-59
2022/11/23 02:21:07;;;;;;;23.70;14.98;;;8.30;99.90;;;;;;5055770;28;20054;-60
2022/11/23 02:24:11;;;;;;;19.67;14.55;;;8.30;99.90;;;;;;5024746;28;20040;-63
2022/11/23 02:26:37;;;;;;;25.17;15.80;;;8.40;99.90;;;;;;5053750;28;20040;-59
2022/11/23 02:29:05;;;;;;;22.95;15.63;;;8.40;99.90;;;;;;5031637;28;20116;-63
2022/11/23 02:31:31;;;;;;;23.50;15.45;;;8.40;99.90;;;;;;5036194;28;20483;-59
2022/11/23 02:33:57;;;;;;;28.05;16.38;;;8.40;99.90;;;;;;5045770;28;20052;-60
2022/11/23 02:36:44;;;;;;;30.33;17.10;;;8.40;99.90;;;;;;5025328;28;20063;-62
2022/11/23 02:39:13;;;;;;;25.67;16.73;;;8.40;99.90;;;;;;5036592;28;20040;-61
2022/11/23 02:41:47;;;;;;;27.10;16.45;;;8.30;99.90;;;;;;5057827;28;20041;-61
2022/11/23 02:44:35;;;;;;;24.30;16.58;;;8.40;99.90;;;;;;5034156;28;20055;-62
2022/11/23 02:47:00;;;;;;;23.48;15.43;;;8.30;99.90;;;;;;5048025;28;20087;-62
2022/11/23 02:49:26;;;;;;;30.45;17.00;;;8.40;99.90;;;;;;5048979;28;20090;-61
2022/11/23 02:51:52;;;;;;;25.33;17.35;;;8.30;99.90;;;;;;5052277;28;20491;-61
2022/11/23 02:54:17;;;;;;;27.05;17.98;;;8.30;99.90;;;;;;5033366;28;20091;-61
2022/11/23 02:56:43;;;;;;;27.67;18.20;;;8.40;99.90;;;;;;5040983;28;20121;-61
2022/11/23 02:59:09;;;;;;;29.85;18.35;;;8.30;99.90;;;;;;5055660;28;20036;-64
2022/11/23 03:01:34;;;;;;;28.15;18.33;;;8.40;99.90;;;;;;5050789;28;20488;-57
2022/11/23 03:04:00;;;;;;;24.30;17.02;;;8.40;99.90;;;;;;5061956;28;20048;-61
2022/11/23 03:06:26;;;;;;;28.23;18.40;;;8.30;99.90;;;;;;5047731;28;20040;-62
2022/11/23 03:08:51;;;;;;;26.63;17.88;;;8.30;99.90;;;;;;5059997;28;20052;-61
2022/11/23 03:11:17;;;;;;;29.70;18.13;;;8.30;99.90;;;;;;5000464;28;20044;-61
2022/11/23 03:13:43;;;;;;;33.60;18.35;;;8.30;99.90;;;;;;5033028;28;20041;-61
2022/11/23 03:16:09;;;;;;;32.70;19.45;;;8.30;99.90;;;;;;5038374;28;20119;-59
2022/11/23 03:18:34;;;;;;;32.72;19.90;;;8.30;99.90;;;;;;5030529;28;20033;-62
2022/11/23 03:21:02;;;;;;;34.58;19.45;;;8.30;99.90;;;;;;5039933;28;20128;-61
2022/11/23 03:23:28;;;;;;;37.00;20.13;;;8.30;99.90;;;;;;5045382;28;20041;-60
2022/11/23 03:25:56;;;;;;;31.30;20.02;;;8.30;99.90;;;;;;5051898;28;20044;-60
2022/11/23 03:28:22;;;;;;;35.58;19.40;;;8.30;99.90;;;;;;5046850;28;20799;-60
2022/11/23 03:30:47;;;;;;;30.52;19.33;;;8.30;99.90;;;;;;5032781;28;20052;-63
2022/11/23 03:33:13;;;;;;;34.78;18.42;;;8.30;99.90;;;;;;5014057;28;20044;-60
2022/11/23 03:35:39;;;;;;;33.08;20.65;;;8.30;99.90;;;;;;5029318;28;20032;-58
2022/11/23 03:38:04;;;;;;;40.30;20.65;;;8.30;99.90;;;;;;5047833;28;20076;-60
2022/11/23 03:40:30;;;;;;;33.53;20.75;;;8.30;99.90;;;;;;5041107;28;20045;-61
2022/11/23 03:42:56;;;;;;;36.58;20.23;;;8.30;99.90;;;;;;5055106;28;20040;-63
2022/11/23 03:45:22;;;;;;;36.92;22.85;;;8.20;99.90;;;;;;5023224;28;20052;-60
2022/11/23 03:47:47;;;;;;;35.00;20.77;;;8.20;99.90;;;;;;5060796;22;20068;-81
2022/11/23 03:50:13;;;;;;;37.25;20.73;;;8.20;99.90;;;;;;5028977;28;20041;-79
2022/11/23 03:52:39;;;;;;;37.90;22.52;;;8.30;99.90;;;;;;5024874;28;20475;-81
2022/11/23 03:55:05;;;;;;;42.70;22.10;;;8.30;99.90;;;;;;5027046;28;20048;-81
2022/11/23 03:57:31;;;;;;;38.67;24.17;;;8.30;99.90;;;;;;5018303;28;20087;-81
2022/11/23 03:59:56;;;;;;;38.13;22.10;;;8.60;99.90;;;;;;4994421;28;20037;-81
2022/11/23 04:02:22;;;;;;;35.72;22.40;;;8.30;99.90;;;;;;5006821;28;20060;-81
2022/11/23 04:04:48;;;;;;;44.38;23.88;;;8.30;99.90;;;;;;5017995;28;20091;-81
2022/11/23 04:07:13;;;;;;;40.90;23.83;;;8.50;99.90;;;;;;4987498;28;20409;-81
2022/11/23 04:09:39;;;;;;;40.13;24.48;;;8.30;99.90;;;;;;5016340;28;20046;-80
2022/11/23 04:12:05;;;;;;;46.58;25.35;;;8.30;99.90;;;;;;5009655;28;20060;-82
2022/11/23 04:14:31;;;;;;;40.17;23.98;;;8.30;99.90;;;;;;5032587;28;20094;-81
2022/11/23 04:16:56;;;;;;;43.38;25.20;;;8.40;99.90;;;;;;5014382;28;20041;-82
2022/11/23 04:19:22;;;;;;;37.15;24.02;;;8.20;99.90;;;;;;5033844;28;20051;-80
2022/11/23 04:21:48;;;;;;;38.35;24.58;;;8.20;99.90;;;;;;5014438;28;20033;-81
2022/11/23 04:24:13;;;;;;;43.45;26.85;;;8.20;99.90;;;;;;5016561;28;20038;-81
2022/11/23 04:26:39;;;;;;;43.30;26.10;;;8.20;99.90;;;;;;5008865;28;20105;-82
2022/11/23 04:29:05;;;;;;;42.92;25.58;;;8.10;99.90;;;;;;5014101;28;20048;-80
2022/11/23 04:31:31;;;;;;;36.97;24.55;;;8.20;99.90;;;;;;5007577;28;20093;-81
2022/11/23 04:33:57;;;;;;;41.92;24.73;;;8.10;99.90;;;;;;4998163;28;20084;-80
2022/11/23 04:36:23;;;;;;;43.38;26.08;;;8.10;99.90;;;;;;5020943;28;20045;-81
2022/11/23 04:38:48;;;;;;;46.20;28.05;;;8.10;99.90;;;;;;5013661;28;20033;-81
2022/11/23 04:41:14;;;;;;;44.83;27.05;;;8.20;99.90;;;;;;5013407;28;20501;-80
2022/11/23 04:43:40;;;;;;;47.50;27.80;;;8.10;99.90;;;;;;5023984;28;20045;-82
2022/11/23 04:46:06;;;;;;;48.40;29.98;;;8.20;99.90;;;;;;5040206;28;20055;-82
2022/11/23 04:48:31;;;;;;;48.17;27.50;;;8.40;99.90;;;;;;5006937;28;20026;-82
2022/11/23 04:50:58;;;;;;;48.00;27.27;;;8.10;99.90;;;;;;5039493;28;20041;-82
2022/11/23 04:53:23;;;;;;;45.85;27.10;;;8.10;99.90;;;;;;5003249;28;20038;-82
2022/11/23 04:55:49;;;;;;;47.38;28.35;;;8.10;99.90;;;;;;5017575;28;20144;-83
2022/11/23 04:58:15;;;;;;;50.55;28.08;;;8.20;99.90;;;;;;5027433;28;20528;-79
2022/11/23 05:00:40;;;;;;;46.97;26.98;;;8.20;99.90;;;;;;5028582;28;20069;-80
2022/11/23 05:03:06;;;;;;;50.40;28.77;;;8.20;99.90;;;;;;5013208;28;20466;-82
2022/11/23 05:05:32;;;;;;;51.78;28.90;;;8.20;99.90;;;;;;5002630;28;20033;-80
2022/11/23 05:07:58;;;;;;;51.67;29.33;;;8.20;99.90;;;;;;5016938;28;20065;-83
2022/11/23 05:10:24;;;;;;;48.85;27.83;;;8.20;99.90;;;;;;5002892;28;20642;-81
2022/11/23 05:12:50;;;;;;;55.70;31.60;;;8.20;99.90;;;;;;4992686;28;20049;-82
2022/11/23 05:15:16;;;;;;;52.38;31.58;;;8.10;99.90;;;;;;5024627;28;20120;-81
2022/11/23 05:17:41;;;;;;;51.00;30.05;;;8.10;99.90;;;;;;5007046;28;20583;-81
2022/11/23 05:20:08;;;;;;;57.63;30.33;;;8.30;99.90;;;;;;5014575;28;20033;-81
2022/11/23 05:22:33;;;;;;;55.88;29.98;;;8.10;99.90;;;;;;5035107;28;20037;-81
2022/11/23 05:24:59;;;;;;;55.85;30.75;;;8.10;99.90;;;;;;5027801;28;20060;-80
2022/11/23 05:27:25;;;;;;;52.28;30.17;;;8.10;99.90;;;;;;5010728;28;20298;-81
2022/11/23 05:29:50;;;;;;;51.85;29.65;;;8.10;99.90;;;;;;5017315;28;20267;-81
2022/11/23 05:32:16;;;;;;;53.05;29.92;;;8.10;99.90;;;;;;5031910;28;20135;-81
2022/11/23 05:34:42;;;;;;;57.67;31.35;;;8.20;99.90;;;;;;5005208;28;20351;-79
2022/11/23 05:37:07;;;;;;;48.67;29.30;;;8.30;99.90;;;;;;5022836;28;20124;-82
2022/11/23 05:39:33;;;;;;;58.25;32.20;;;8.20;99.90;;;;;;5001087;28;20037;-82
2022/11/23 05:41:59;;;;;;;53.80;29.67;;;8.20;99.90;;;;;;5002968;28;20037;-81
2022/11/23 05:44:24;;;;;;;55.90;31.23;;;8.20;99.90;;;;;;5001164;28;20063;-81
2022/11/23 05:46:50;;;;;;;54.47;30.98;;;8.20;99.90;;;;;;5009908;28;20136;-81
2022/11/23 05:49:16;;;;;;;58.65;32.03;;;8.20;99.90;;;;;;5002618;28;20041;-80
2022/11/23 05:51:41;;;;;;;55.25;30.52;;;8.20;99.90;;;;;;4993725;28;20087;-81
2022/11/23 05:54:07;;;;;;;56.03;30.52;;;8.20;99.90;;;;;;5036453;28;20042;-81
2022/11/23 05:56:33;;;;;;;52.30;30.05;;;8.20;99.90;;;;;;5013925;28;20109;-81
2022/11/23 05:58:58;;;;;;;49.05;29.45;;;8.20;99.90;;;;;;5003456;28;20026;-83
2022/11/23 06:01:24;;;;;;;46.58;27.67;;;8.20;99.90;;;;;;5007028;28;20053;-81
2022/11/23 06:03:50;;;;;;;48.28;28.95;;;8.20;99.90;;;;;;5005899;28;20052;-80
2022/11/23 06:06:15;;;;;;;50.13;28.00;;;8.10;99.90;;;;;;5014607;28;20037;-80
2022/11/23 06:08:41;;;;;;;48.28;28.30;;;8.10;99.90;;;;;;5007332;28;20045;-80
2022/11/23 06:11:08;;;;;;;44.35;27.35;;;8.20;99.90;;;;;;4979795;28;20049;-81
2022/11/23 06:13:34;;;;;;;52.75;27.95;;;8.10;99.90;;;;;;5007680;28;22426;-80
2022/11/23 06:15:59;;;;;;;48.53;27.75;;;8.20;99.90;;;;;;5011828;28;20046;-81
2022/11/23 06:18:25;;;;;;;46.72;27.55;;;8.10;99.90;;;;;;4994262;28;20037;-80
2022/11/23 06:20:51;;;;;;;42.50;26.40;;;8.10;99.90;;;;;;5007992;28;20037;-80
2022/11/23 06:23:16;;;;;;;42.80;27.08;;;8.20;99.90;;;;;;4992105;28;20537;-81
2022/11/23 06:25:42;;;;;;;46.85;26.52;;;8.20;99.90;;;;;;4997490;28;20048;-81
2022/11/23 06:28:08;;;;;;;45.05;25.58;;;8.10;99.90;;;;;;5016410;28;20045;-81
2022/11/23 06:30:34;;;;;;;37.70;23.92;;;8.10;99.90;;;;;;5017298;28;20418;-79
2022/11/23 06:33:03;;;;;;;36.85;22.95;;;8.10;99.90;;;;;;5018761;28;20029;-80
2022/11/23 06:35:28;;;;;;;41.75;23.52;;;8.20;99.90;;;;;;5007947;28;20520;-80
2022/11/23 06:37:54;;;;;;;37.95;21.80;;;8.20;99.90;;;;;;4986236;28;22663;-81
2022/11/23 06:40:20;;;;;;;39.00;21.38;;;8.10;99.90;;;;;;5026795;28;20087;-81
2022/11/23 06:42:47;;;;;;;41.13;23.08;;;8.10;99.90;;;;;;5012192;28;20033;-83
2022/11/23 06:45:13;;;;;;;34.35;22.10;;;8.10;99.90;;;;;;5028769;28;20115;-81
2022/11/23 06:47:39;;;;;;;38.10;20.90;;;8.10;99.90;;;;;;5018897;28;20103;-79
2022/11/23 06:50:05;;;;;;;33.22;20.85;;;8.10;99.90;;;;;;5028029;28;20272;-81
2022/11/23 06:52:32;;;;;;;38.90;20.90;;;8.10;99.90;;;;;;5025354;28;20088;-81
2022/11/23 06:54:57;;;;;;;31.58;20.08;;;8.10;99.90;;;;;;5043526;28;20037;-84
2022/11/23 06:57:23;;;;;;;34.88;20.80;;;8.10;99.90;;;;;;5021575;28;20041;-84
2022/11/23 06:59:49;;;;;;;32.22;20.45;;;8.10;99.90;;;;;;5043063;28;20053;-80
2022/11/23 07:02:14;;;;;;;33.60;20.23;;;8.10;99.90;;;;;;5010678;28;20103;-81
2022/11/23 07:04:40;;;;;;;33.97;19.65;;;8.10;99.90;;;;;;5024246;28;20049;-80
2022/11/23 07:07:09;;;;;;;28.63;19.42;;;8.10;99.90;;;;;;5031706;28;20049;-82
2022/11/23 07:09:34;;;;;;;36.03;20.13;;;8.10;99.90;;;;;;5040034;28;20124;-82
2022/11/23 07:12:00;;;;;;;31.48;18.73;;;8.00;99.90;;;;;;5032522;28;20041;-83
2022/11/23 07:14:26;;;;;;;28.25;19.95;;;8.10;99.90;;;;;;5033419;28;20029;-83
2022/11/23 07:16:51;;;;;;;28.63;19.27;;;8.10;99.90;;;;;;5017781;28;20054;-81
2022/11/23 07:19:17;;;;;;;32.58;19.42;;;8.10;99.90;;;;;;5035460;28;20040;-82
2022/11/23 07:21:44;;;;;;;31.17;18.70;;;8.20;99.90;;;;;;5018003;28;20042;-81
2022/11/23 07:24:10;;;;;;;32.08;18.35;;;8.10;99.90;;;;;;5014786;28;20053;-82
2022/11/23 07:26:35;;;;;;;29.13;18.13;;;8.10;99.90;;;;;;5034724;28;20087;-79
2022/11/23 07:29:01;;;;;;;33.03;17.98;;;8.10;99.90;;;;;;5036702;28;20052;-82
2022/11/23 07:31:27;;;;;;;30.20;17.63;;;8.10;99.90;;;;;;5020949;28;20037;-81
2022/11/23 07:33:52;;;;;;;29.55;17.67;;;8.10;99.90;;;;;;5004602;28;20034;-83
2022/11/23 07:36:18;;;;;;;27.08;16.52;;;8.10;99.90;;;;;;5004097;28;20025;-82
2022/11/23 07:38:44;;;;;;;28.00;16.50;;;8.20;99.90;;;;;;5011631;28;20044;-80
2022/11/23 07:41:09;;;;;;;26.23;14.32;;;8.10;99.90;;;;;;5045497;28;20041;-85
2022/11/23 07:43:35;;;;;;;24.42;15.23;;;8.10;99.90;;;;;;5029249;28;20049;-83
2022/11/23 07:46:01;;;;;;;26.20;14.55;;;8.40;99.90;;;;;;5023022;28;20042;-79
2022/11/23 07:48:26;;;;;;;24.77;13.80;;;8.10;99.90;;;;;;5001205;28;20029;-84
2022/11/23 07:50:53;;;;;;;23.80;14.75;;;8.10;99.90;;;;;;5010016;28;20076;-82
2022/11/23 07:53:19;;;;;;;27.77;12.95;;;8.10;99.90;;;;;;5017493;28;20629;-82
2022/11/23 07:55:45;;;;;;;26.70;13.95;;;8.10;99.90;;;;;;5012085;28;20060;-81
2022/11/23 07:58:11;;;;;;;20.75;12.10;;;8.00;99.90;;;;;;5013457;28;20509;-82
2022/11/23 08:00:37;;;;;;;21.85;11.13;;;8.10;99.90;;;;;;5019563;28;20069;-83
2022/11/23 08:03:11;;;;;;;25.98;12.88;;;8.10;99.90;;;;;;5009624;28;20120;-83
2022/11/23 08:05:37;;;;;;;20.30;12.70;;;8.20;99.90;;;;;;5009252;28;20097;-83
2022/11/23 08:08:03;;;;;;;20.33;12.23;;;8.10;99.90;;;;;;5022072;28;20113;-81
2022/11/23 08:10:30;;;;;;;16.83;11.18;;;8.20;99.90;;;;;;5027870;28;20467;-82
2022/11/23 08:13:01;;;;;;;19.73;11.75;;;8.20;99.90;;;;;;5014812;28;20037;-81
2022/11/23 08:15:27;;;;;;;20.67;11.18;;;8.20;99.90;;;;;;5028536;28;20034;-82
2022/11/23 08:17:57;;;;;;;22.38;11.38;;;8.30;99.90;;;;;;5030546;28;20041;-82
2022/11/23 08:20:24;;;;;;;26.40;12.00;;;8.20;99.90;;;;;;5029328;28;20041;-82
2022/11/23 08:22:50;;;;;;;20.30;12.57;;;8.20;99.90;;;;;;5027845;28;20071;-81
2022/11/23 08:25:15;;;;;;;18.75;11.68;;;8.20;99.90;;;;;;5008209;28;20518;-82
2022/11/23 08:27:41;;;;;;;25.00;12.75;;;8.20;99.90;;;;;;5017113;28;20041;-82
2022/11/23 08:30:07;;;;;;;25.05;12.30;;;8.30;99.90;;;;;;4987568;28;20042;-84
2022/11/23 08:32:33;;;;;;;18.83;11.82;;;8.20;99.90;;;;;;5028668;28;20041;-84
2022/11/23 08:34:59;;;;;;;19.83;12.07;;;8.30;99.90;;;;;;5008391;28;20045;-83
2022/11/23 08:37:24;;;;;;;18.25;11.32;;;8.40;99.90;;;;;;4990231;28;20349;-83
2022/11/23 08:39:50;;;;;;;21.70;12.60;;;8.30;99.90;;;;;;4999863;28;20041;-81
2022/11/23 08:42:15;;;;;;;18.58;11.50;;;8.30;99.90;;;;;;5023866;28;20067;-84
2022/11/23 08:44:41;;;;;;;23.25;12.45;;;8.40;99.90;;;;;;4997263;28;20712;-83
2022/11/23 08:47:07;;;;;;;21.30;12.88;;;8.40;99.90;;;;;;5014890;28;20044;-83
2022/11/23 08:49:32;;;;;;;21.98;11.38;;;8.40;99.90;;;;;;4995355;28;20097;-83
2022/11/23 08:51:59;;;;;;;18.85;11.45;;;8.50;99.90;;;;;;5025636;28;20036;-82
2022/11/23 08:54:25;;;;;;;22.17;11.90;;;8.50;99.90;;;;;;5010229;28;20033;-81
2022/11/23 08:56:51;;;;;;;23.02;11.38;;;8.50;99.90;;;;;;5008783;28;20510;-82
2022/11/23 08:59:17;;;;;;;18.30;11.45;;;8.60;99.90;;;;;;5023064;28;20038;-83
2022/11/23 09:01:43;;;;;;;21.25;11.10;;;8.80;99.90;;;;;;4991559;28;20041;-80
2022/11/23 09:04:09;;;;;;;22.90;10.32;;;8.60;99.90;;;;;;4995920;28;20072;-81
2022/11/23 09:06:35;;;;;;;21.92;10.57;;;8.70;99.90;;;;;;5004826;28;20421;-80
2022/11/23 09:09:01;;;;;;;17.88;10.63;;;8.60;99.90;;;;;;4996863;28;20044;-81
2022/11/23 09:11:27;;;;;;;20.05;10.60;;;8.70;99.90;;;;;;5037928;28;20104;-84
2022/11/23 09:13:53;;;;;;;17.67;9.55;;;8.70;99.90;;;;;;5029089;28;20040;-82
2022/11/23 09:16:19;;;;;;;16.25;10.18;;;8.60;99.90;;;;;;5033578;28;20090;-83
2022/11/23 09:18:45;;;;;;;22.02;8.95;;;8.60;99.90;;;;;;5027059;28;20124;-81
2022/11/23 09:21:11;;;;;;;21.23;9.20;;;8.60;99.90;;;;;;5028656;28;20033;-82
2022/11/23 09:23:40;;;;;;;16.58;9.35;;;8.70;99.90;;;;;;5005796;28;20095;-81
2022/11/23 09:26:05;;;;;;;16.25;8.02;;;8.70;99.90;;;;;;5008050;28;20045;-81
2022/11/23 09:28:32;;;;;;;19.00;9.73;;;8.70;99.90;;;;;;5027241;28;20060;-81
2022/11/23 09:31:01;;;;;;;21.67;9.65;;;8.80;99.90;;;;;;4982483;28;20169;-83
2022/11/23 09:33:26;;;;;;;21.27;8.63;;;8.70;99.90;;;;;;4994790;28;20701;-82
2022/11/23 09:36:00;;;;;;;18.55;7.85;;;8.80;99.90;;;;;;5008781;28;20191;-80
2022/11/23 09:38:26;;;;;;;19.50;8.75;;;8.80;99.90;;;;;;4994208;28;20125;-80
2022/11/23 09:41:14;;;;;;;19.20;8.20;;;8.80;99.90;;;;;;5027622;28;20033;-82
2022/11/23 09:43:57;;;;;;;16.70;7.78;;;8.80;99.90;;;;;;5009022;28;20497;-82
2022/11/23 09:46:46;;;;;;;19.05;7.40;;;8.80;99.90;;;;;;5009741;28;20536;-82
2022/11/23 09:49:18;;;;;;;16.75;7.22;;;8.80;99.90;;;;;;5065452;22;20381;-81
2022/11/23 09:51:45;;;;;;;18.48;7.68;;;8.80;99.90;;;;;;5023527;28;20429;-82
2022/11/23 09:54:21;;;;;;;18.52;7.40;;;8.80;99.90;;;;;;5021800;28;20041;-81
2022/11/23 09:56:50;;;;;;;16.80;7.15;;;8.80;99.90;;;;;;5040750;28;20045;-82
2022/11/23 09:59:27;;;;;;;16.65;7.65;;;8.90;99.90;;;;;;5054041;28;20057;-81
2022/11/23 10:01:52;;;;;;;17.23;7.53;;;8.90;99.90;;;;;;5024285;28;20029;-81
2022/11/23 10:04:19;;;;;;;23.48;7.70;;;8.90;99.90;;;;;;5009917;28;20108;-80
2022/11/23 10:06:51;;;;;;;16.00;7.63;;;8.90;99.90;;;;;;5026064;28;20051;-80
2022/11/23 10:09:55;;;;;;;14.52;6.72;;;8.90;99.90;;;;;;4993907;28;20033;-80
2022/11/23 10:12:57;;;;;;;12.45;7.55;;;8.90;99.90;;;;;;5020214;28;20053;-82
2022/11/23 10:15:32;;;;;;;16.83;6.82;;;8.90;99.90;;;;;;5023051;28;20037;-81
2022/11/23 10:18:14;;;;;;;18.60;6.88;;;8.90;99.90;;;;;;5010847;28;20196;-81
2022/11/23 10:20:49;;;;;;;15.75;6.75;;;8.90;99.90;;;;;;5030903;28;22688;-82
2022/11/23 10:23:51;;;;;;;19.42;7.25;;;9.00;99.90;;;;;;5026752;28;20044;-83
2022/11/23 10:26:19;;;;;;;12.85;6.10;;;8.80;99.90;;;;;;5010308;28;20038;-82
2022/11/23 10:28:46;;;;;;;17.52;6.50;;;8.90;99.90;;;;;;5023465;28;20577;-83
2022/11/23 10:31:21;;;;;;;21.73;6.85;;;9.10;99.90;;;;;;5022439;28;20120;-82
2022/11/23 10:33:53;;;;;;;14.57;6.03;;;9.00;99.90;;;;;;5003898;28;20037;-80
2022/11/23 10:36:18;;;;;;;18.90;5.53;;;9.00;99.90;;;;;;5005063;28;20080;-80
2022/11/23 10:38:49;;;;;;;18.60;6.30;;;9.00;99.90;;;;;;4991123;28;20068;-80
2022/11/23 10:41:15;;;;;;;23.48;6.47;;;9.00;99.90;;;;;;5009637;28;20053;-81
2022/11/23 10:43:54;;;;;;;18.17;5.75;;;9.10;99.90;;;;;;5005368;28;20041;-80
2022/11/23 10:46:23;;;;;;;17.60;5.93;;;9.10;99.90;;;;;;5023565;28;20042;-81
2022/11/23 10:48:50;;;;;;;26.25;6.05;;;9.10;99.90;;;;;;5026043;28;20037;-80
2022/11/23 10:51:30;;;;;;;13.20;5.22;;;9.30;99.90;;;;;;5034523;28;20052;-80
2022/11/23 10:54:01;;;;;;;16.48;4.93;;;9.30;99.90;;;;;;5033117;28;20148;-80
2022/11/23 10:56:28;;;;;;;14.00;4.50;;;9.30;99.90;;;;;;5017457;28;20038;-81
2022/11/23 10:58:54;;;;;;;12.32;4.22;;;9.40;99.90;;;;;;5014607;28;20183;-81
2022/11/23 11:01:23;;;;;;;18.02;4.93;;;9.40;99.90;;;;;;5032396;28;20133;-81
2022/11/23 11:03:53;;;;;;;15.15;4.88;;;9.40;99.90;;;;;;5025421;28;20046;-81
2022/11/23 11:06:28;;;;;;;15.40;5.20;;;9.50;99.90;;;;;;5006458;28;20045;-81
2022/11/23 11:08:55;;;;;;;14.77;5.05;;;9.60;99.90;;;;;;5024790;28;20037;-81
2022/11/23 11:11:26;;;;;;;16.70;4.43;;;9.80;99.90;;;;;;5025565;28;20116;-80
2022/11/23 11:14:22;;;;;;;13.00;4.03;;;10.00;99.90;;;;;;5022131;28;20143;-82
2022/11/23 11:16:51;;;;;;;14.93;4.18;;;10.00;99.90;;;;;;5024724;28;20048;-83
2022/11/23 11:19:34;;;;;;;14.50;4.13;;;10.10;99.90;;;;;;5009779;28;20041;-82
2022/11/23 11:22:21;;;;;;;18.50;4.67;;;10.20;99.90;;;;;;5021938;28;20355;-81
2022/11/23 11:24:48;;;;;;;13.35;4.15;;;10.20;99.90;;;;;;5026417;28;20700;-82
2022/11/23 11:27:20;;;;;;;14.82;3.72;;;10.30;99.90;;;;;;5006313;28;20208;-82
2022/11/23 11:29:49;;;;;;;15.60;4.25;;;10.30;99.90;;;;;;5006871;28;20080;-82
2022/11/23 11:32:23;;;;;;;11.80;3.75;;;10.30;99.90;;;;;;5010794;28;20381;-83
2022/11/23 11:35:01;;;;;;;;;;;10.30;99.90;;;;;;5011145;28;20037;-82
2022/11/23 11:37:39;;;;;;;13.75;3.97;;;10.40;99.90;;;;;;5004965;28;20392;-83
2022/11/23 11:40:41;;;;;;;17.10;4.22;;;10.50;99.90;;;;;;5023895;28;20409;-82
2022/11/23 11:43:18;;;;;;;15.35;3.63;;;10.60;99.90;;;;;;5030541;28;20037;-83
2022/11/23 11:45:53;;;;;;;15.30;3.58;;;10.60;99.90;;;;;;5014881;28;20033;-82
2022/11/23 11:48:38;;;;;;;14.35;3.55;;;10.70;99.90;;;;;;5011671;28;20033;-81
2022/11/23 11:51:10;;;;;;;11.60;2.88;;;10.70;99.90;;;;;;5029583;28;20510;-81
2022/11/23 11:54:00;;;;;;;11.18;3.42;;;10.80;99.90;;;;;;5011301;28;20079;-81
2022/11/23 11:56:43;;;;;;;15.57;3.42;;;10.80;99.90;;;;;;5022293;28;20496;-81
2022/11/23 11:59:27;;;;;;;11.73;3.35;;;10.90;99.90;;;;;;5032034;28;20072;-81
2022/11/23 12:02:02;;;;;;;14.35;3.10;;;10.90;99.90;;;;;;5036360;28;20041;-80
2022/11/23 12:04:38;;;;;;;13.88;3.80;;;10.90;99.90;;;;;;5027420;28;20037;-81
2022/11/23 12:07:09;;;;;;;16.48;3.28;;;10.90;99.90;;;;;;5047309;28;20037;-81
2022/11/23 12:09:39;;;;;;;18.05;3.50;;;10.90;99.90;;;;;;5033471;28;20049;-82
2022/11/23 12:12:14;;;;;;;11.77;3.45;;;10.90;99.90;;;;;;5021023;28;20052;-81
2022/11/23 12:14:40;;;;;;;13.05;4.10;;;10.90;99.90;;;;;;5018838;28;20041;-81
2022/11/23 12:17:28;;;;;;;10.80;2.72;;;10.90;99.90;;;;;;5013237;28;20065;-81
2022/11/23 12:20:20;;;;;;;13.95;2.90;;;10.80;99.90;;;;;;5031439;28;20143;-81
2022/11/23 12:22:57;;;;;;;11.27;2.65;;;10.90;99.90;;;;;;5029849;28;20088;-81
2022/11/23 12:25:39;;;;;;;13.50;3.40;;;10.90;99.90;;;;;;5036477;28;20064;-81
2022/11/23 12:28:17;;;;;;;13.38;3.15;;;10.90;99.90;;;;;;5034638;28;20522;-81
2022/11/23 12:31:04;;;;;;;13.23;2.55;;;10.80;99.90;;;;;;5027370;28;20048;-81
2022/11/23 12:33:41;;;;;;;14.90;3.22;;;10.80;99.90;;;;;;5017514;28;20041;-82
2022/11/23 12:36:19;;;;;;;12.45;2.92;;;10.70;99.90;;;;;;5035781;28;20037;-80
2022/11/23 12:39:16;;;;;;;14.23;3.38;;;10.70;99.90;;;;;;5015031;28;20585;-80
2022/11/23 12:42:23;;;;;;;13.05;2.65;;;10.60;99.90;;;;;;5032185;28;20033;-81
2022/11/23 12:45:01;;;;;;;13.55;3.25;;;10.60;99.90;;;;;;5027865;28;20049;-80
2022/11/23 12:47:29;;;;;;;16.80;3.90;;;10.60;99.90;;;;;;5030964;28;20038;-80